sensor_id;sensor_type;location;lat;lon;timestamp;P1;durP1;ratioP1;P2;durP2;ratioP2
15833;SDS011;8017;50.812;4.934;2022-08-25T00:02:00;4.03;;;3.63;;
15833;SDS011;8017;50.812;4.934;2022-08-25T00:05:04;9.43;;;4.00;;
15833;SDS011;8017;50.812;4.934;2022-08-25T00:08:07;5.83;;;4.00;;
15833;SDS011;8017;50.812;4.934;2022-08-25T00:11:11;5.20;;;3.50;;
15833;SDS011;8017;50.812;4.934;2022-08-25T00:14:16;7.07;;;4.30;;
15833;SDS011;8017;50.812;4.934;2022-08-25T00:17:19;5.50;;;3.80;;
15833;SDS011;8017;50.812;4.934;2022-08-25T00:20:21;4.63;;;3.57;;
15833;SDS011;8017;50.812;4.934;2022-08-25T00:23:24;4.43;;;4.03;;
15833;SDS011;8017;50.812;4.934;2022-08-25T00:26:27;5.67;;;4.27;;
15833;SDS011;8017;50.812;4.934;2022-08-25T00:29:30;6.30;;;4.60;;
15833;SDS011;8017;50.812;4.934;2022-08-25T00:32:33;9.67;;;4.90;;
15833;SDS011;8017;50.812;4.934;2022-08-25T00:35:35;7.33;;;4.63;;
15833;SDS011;8017;50.812;4.934;2022-08-25T00:38:39;6.77;;;4.47;;
15833;SDS011;8017;50.812;4.934;2022-08-25T00:41:43;8.47;;;4.40;;
15833;SDS011;8017;50.812;4.934;2022-08-25T00:44:45;8.30;;;4.97;;
15833;SDS011;8017;50.812;4.934;2022-08-25T00:47:47;10.50;;;4.90;;
15833;SDS011;8017;50.812;4.934;2022-08-25T00:50:49;6.20;;;4.67;;
15833;SDS011;8017;50.812;4.934;2022-08-25T00:53:51;6.17;;;4.63;;
15833;SDS011;8017;50.812;4.934;2022-08-25T00:56:55;8.93;;;5.90;;
15833;SDS011;8017;50.812;4.934;2022-08-25T00:59:57;6.83;;;5.73;;
15833;SDS011;8017;50.812;4.934;2022-08-25T01:03:00;8.97;;;6.30;;
15833;SDS011;8017;50.812;4.934;2022-08-25T01:06:03;9.27;;;6.10;;
15833;SDS011;8017;50.812;4.934;2022-08-25T01:09:05;7.70;;;6.20;;
15833;SDS011;8017;50.812;4.934;2022-08-25T01:12:09;8.20;;;6.93;;
15833;SDS011;8017;50.812;4.934;2022-08-25T01:15:12;8.27;;;7.13;;
15833;SDS011;8017;50.812;4.934;2022-08-25T01:18:14;14.63;;;7.93;;
15833;SDS011;8017;50.812;4.934;2022-08-25T01:21:18;9.80;;;6.60;;
15833;SDS011;8017;50.812;4.934;2022-08-25T01:24:23;8.10;;;7.23;;
15833;SDS011;8017;50.812;4.934;2022-08-25T01:27:32;11.30;;;7.47;;
15833;SDS011;8017;50.812;4.934;2022-08-25T01:30:34;9.90;;;7.23;;
15833;SDS011;8017;50.812;4.934;2022-08-25T01:33:36;11.17;;;8.20;;
15833;SDS011;8017;50.812;4.934;2022-08-25T01:36:40;9.23;;;7.10;;
15833;SDS011;8017;50.812;4.934;2022-08-25T01:39:43;9.30;;;7.80;;
15833;SDS011;8017;50.812;4.934;2022-08-25T01:42:46;11.80;;;7.67;;
15833;SDS011;8017;50.812;4.934;2022-08-25T01:45:59;10.13;;;7.23;;
15833;SDS011;8017;50.812;4.934;2022-08-25T01:49:01;9.83;;;7.17;;
15833;SDS011;8017;50.812;4.934;2022-08-25T01:52:06;11.00;;;6.97;;
15833;SDS011;8017;50.812;4.934;2022-08-25T01:55:12;10.27;;;7.10;;
15833;SDS011;8017;50.812;4.934;2022-08-25T01:58:14;8.87;;;6.77;;
15833;SDS011;8017;50.812;4.934;2022-08-25T02:01:17;8.23;;;6.37;;
15833;SDS011;8017;50.812;4.934;2022-08-25T02:04:20;9.03;;;6.47;;
15833;SDS011;8017;50.812;4.934;2022-08-25T02:07:23;11.77;;;7.03;;
15833;SDS011;8017;50.812;4.934;2022-08-25T02:10:25;12.50;;;6.80;;
15833;SDS011;8017;50.812;4.934;2022-08-25T02:13:27;11.40;;;7.27;;
15833;SDS011;8017;50.812;4.934;2022-08-25T02:16:30;11.37;;;6.93;;
15833;SDS011;8017;50.812;4.934;2022-08-25T02:19:34;13.27;;;8.20;;
15833;SDS011;8017;50.812;4.934;2022-08-25T02:22:37;10.97;;;7.97;;
15833;SDS011;8017;50.812;4.934;2022-08-25T02:25:39;8.13;;;7.27;;
15833;SDS011;8017;50.812;4.934;2022-08-25T02:28:42;9.83;;;7.33;;
15833;SDS011;8017;50.812;4.934;2022-08-25T02:31:45;9.87;;;6.70;;
15833;SDS011;8017;50.812;4.934;2022-08-25T02:34:47;10.70;;;6.70;;
15833;SDS011;8017;50.812;4.934;2022-08-25T02:37:50;8.53;;;6.63;;
15833;SDS011;8017;50.812;4.934;2022-08-25T02:40:53;12.43;;;7.00;;
15833;SDS011;8017;50.812;4.934;2022-08-25T02:43:55;9.70;;;6.57;;
15833;SDS011;8017;50.812;4.934;2022-08-25T02:46:57;8.90;;;6.80;;
15833;SDS011;8017;50.812;4.934;2022-08-25T02:49:59;8.50;;;7.23;;
15833;SDS011;8017;50.812;4.934;2022-08-25T02:53:02;11.47;;;7.60;;
15833;SDS011;8017;50.812;4.934;2022-08-25T02:56:04;10.23;;;7.33;;
15833;SDS011;8017;50.812;4.934;2022-08-25T02:59:07;11.67;;;7.37;;
15833;SDS011;8017;50.812;4.934;2022-08-25T03:02:10;10.37;;;7.00;;
15833;SDS011;8017;50.812;4.934;2022-08-25T03:05:12;8.53;;;7.20;;
15833;SDS011;8017;50.812;4.934;2022-08-25T03:08:16;9.20;;;7.10;;
15833;SDS011;8017;50.812;4.934;2022-08-25T03:11:18;13.90;;;7.43;;
15833;SDS011;8017;50.812;4.934;2022-08-25T03:14:21;8.13;;;6.87;;
15833;SDS011;8017;50.812;4.934;2022-08-25T03:17:23;9.53;;;7.13;;
15833;SDS011;8017;50.812;4.934;2022-08-25T03:20:25;12.27;;;7.27;;
15833;SDS011;8017;50.812;4.934;2022-08-25T03:23:30;11.57;;;7.13;;
15833;SDS011;8017;50.812;4.934;2022-08-25T03:26:31;9.33;;;6.63;;
15833;SDS011;8017;50.812;4.934;2022-08-25T03:29:51;8.47;;;7.20;;
15833;SDS011;8017;50.812;4.934;2022-08-25T03:32:55;8.17;;;6.80;;
15833;SDS011;8017;50.812;4.934;2022-08-25T03:35:57;8.13;;;7.10;;
15833;SDS011;8017;50.812;4.934;2022-08-25T03:39:01;10.37;;;7.27;;
15833;SDS011;8017;50.812;4.934;2022-08-25T03:42:03;10.80;;;7.17;;
15833;SDS011;8017;50.812;4.934;2022-08-25T03:45:06;9.07;;;6.87;;
15833;SDS011;8017;50.812;4.934;2022-08-25T03:48:10;9.57;;;7.37;;
15833;SDS011;8017;50.812;4.934;2022-08-25T03:51:17;11.37;;;7.47;;
15833;SDS011;8017;50.812;4.934;2022-08-25T03:54:22;10.23;;;7.53;;
15833;SDS011;8017;50.812;4.934;2022-08-25T03:57:25;7.87;;;5.97;;
15833;SDS011;8017;50.812;4.934;2022-08-25T04:00:27;7.67;;;6.37;;
15833;SDS011;8017;50.812;4.934;2022-08-25T04:03:30;13.23;;;6.63;;
15833;SDS011;8017;50.812;4.934;2022-08-25T04:06:32;8.13;;;5.77;;
15833;SDS011;8017;50.812;4.934;2022-08-25T04:09:36;7.70;;;6.27;;
15833;SDS011;8017;50.812;4.934;2022-08-25T04:12:38;9.90;;;6.53;;
15833;SDS011;8017;50.812;4.934;2022-08-25T04:15:41;8.87;;;7.43;;
15833;SDS011;8017;50.812;4.934;2022-08-25T04:18:43;16.67;;;7.57;;
15833;SDS011;8017;50.812;4.934;2022-08-25T04:21:46;12.10;;;7.97;;
15833;SDS011;8017;50.812;4.934;2022-08-25T04:24:50;8.70;;;6.73;;
15833;SDS011;8017;50.812;4.934;2022-08-25T04:27:52;8.93;;;7.17;;
15833;SDS011;8017;50.812;4.934;2022-08-25T04:30:54;9.63;;;7.07;;
15833;SDS011;8017;50.812;4.934;2022-08-25T04:33:56;8.87;;;6.30;;
15833;SDS011;8017;50.812;4.934;2022-08-25T04:36:59;9.40;;;6.63;;
15833;SDS011;8017;50.812;4.934;2022-08-25T04:40:05;11.30;;;6.73;;
15833;SDS011;8017;50.812;4.934;2022-08-25T04:43:08;8.43;;;6.67;;
15833;SDS011;8017;50.812;4.934;2022-08-25T04:46:11;10.43;;;7.33;;
15833;SDS011;8017;50.812;4.934;2022-08-25T04:49:14;11.67;;;7.77;;
15833;SDS011;8017;50.812;4.934;2022-08-25T04:52:16;11.93;;;7.83;;
15833;SDS011;8017;50.812;4.934;2022-08-25T04:55:20;12.97;;;8.53;;
15833;SDS011;8017;50.812;4.934;2022-08-25T04:58:22;12.70;;;8.70;;
15833;SDS011;8017;50.812;4.934;2022-08-25T05:01:24;17.13;;;8.93;;
15833;SDS011;8017;50.812;4.934;2022-08-25T05:04:26;11.93;;;7.50;;
15833;SDS011;8017;50.812;4.934;2022-08-25T05:07:28;8.20;;;6.63;;
15833;SDS011;8017;50.812;4.934;2022-08-25T05:10:37;8.13;;;5.87;;
15833;SDS011;8017;50.812;4.934;2022-08-25T05:13:40;8.20;;;5.97;;
15833;SDS011;8017;50.812;4.934;2022-08-25T05:16:42;8.50;;;5.50;;
15833;SDS011;8017;50.812;4.934;2022-08-25T05:19:44;6.70;;;5.73;;
15833;SDS011;8017;50.812;4.934;2022-08-25T05:22:46;8.40;;;5.20;;
15833;SDS011;8017;50.812;4.934;2022-08-25T05:25:49;7.70;;;6.60;;
15833;SDS011;8017;50.812;4.934;2022-08-25T05:28:53;8.97;;;6.47;;
15833;SDS011;8017;50.812;4.934;2022-08-25T05:31:56;13.07;;;6.07;;
15833;SDS011;8017;50.812;4.934;2022-08-25T05:34:57;13.00;;;7.13;;
15833;SDS011;8017;50.812;4.934;2022-08-25T05:37:59;7.80;;;6.37;;
15833;SDS011;8017;50.812;4.934;2022-08-25T05:41:03;11.93;;;6.60;;
15833;SDS011;8017;50.812;4.934;2022-08-25T05:44:09;8.53;;;6.20;;
15833;SDS011;8017;50.812;4.934;2022-08-25T05:47:12;10.73;;;6.70;;
15833;SDS011;8017;50.812;4.934;2022-08-25T05:50:14;11.87;;;7.23;;
15833;SDS011;8017;50.812;4.934;2022-08-25T05:53:16;9.07;;;6.90;;
15833;SDS011;8017;50.812;4.934;2022-08-25T05:56:20;11.97;;;7.07;;
15833;SDS011;8017;50.812;4.934;2022-08-25T05:59:22;7.60;;;5.93;;
15833;SDS011;8017;50.812;4.934;2022-08-25T06:02:23;7.87;;;5.30;;
15833;SDS011;8017;50.812;4.934;2022-08-25T06:05:43;9.57;;;5.73;;
15833;SDS011;8017;50.812;4.934;2022-08-25T06:08:45;10.50;;;5.10;;
15833;SDS011;8017;50.812;4.934;2022-08-25T06:11:48;20.27;;;5.67;;
15833;SDS011;8017;50.812;4.934;2022-08-25T06:14:50;21.77;;;5.80;;
15833;SDS011;8017;50.812;4.934;2022-08-25T06:17:52;17.07;;;5.10;;
15833;SDS011;8017;50.812;4.934;2022-08-25T06:20:57;15.10;;;5.33;;
15833;SDS011;8017;50.812;4.934;2022-08-25T06:23:58;15.53;;;4.87;;
15833;SDS011;8017;50.812;4.934;2022-08-25T06:27:02;21.50;;;5.00;;
15833;SDS011;8017;50.812;4.934;2022-08-25T06:30:04;11.03;;;4.20;;
15833;SDS011;8017;50.812;4.934;2022-08-25T06:33:07;10.87;;;4.37;;
15833;SDS011;8017;50.812;4.934;2022-08-25T06:36:10;12.50;;;4.53;;
15833;SDS011;8017;50.812;4.934;2022-08-25T06:39:12;8.77;;;4.23;;
15833;SDS011;8017;50.812;4.934;2022-08-25T06:42:16;10.60;;;4.83;;
15833;SDS011;8017;50.812;4.934;2022-08-25T06:45:18;9.20;;;4.00;;
15833;SDS011;8017;50.812;4.934;2022-08-25T06:48:21;9.07;;;4.13;;
15833;SDS011;8017;50.812;4.934;2022-08-25T06:51:24;12.23;;;3.73;;
15833;SDS011;8017;50.812;4.934;2022-08-25T06:54:26;8.17;;;3.77;;
15833;SDS011;8017;50.812;4.934;2022-08-25T06:57:29;12.67;;;4.40;;
15833;SDS011;8017;50.812;4.934;2022-08-25T07:00:34;7.83;;;3.47;;
15833;SDS011;8017;50.812;4.934;2022-08-25T07:03:36;8.70;;;3.40;;
15833;SDS011;8017;50.812;4.934;2022-08-25T07:06:38;10.43;;;3.27;;
15833;SDS011;8017;50.812;4.934;2022-08-25T07:09:40;11.53;;;3.70;;
15833;SDS011;8017;50.812;4.934;2022-08-25T07:12:43;11.23;;;3.37;;
15833;SDS011;8017;50.812;4.934;2022-08-25T07:15:45;9.07;;;3.10;;
15833;SDS011;8017;50.812;4.934;2022-08-25T07:18:47;10.77;;;2.67;;
15833;SDS011;8017;50.812;4.934;2022-08-25T07:21:50;16.10;;;4.13;;
15833;SDS011;8017;50.812;4.934;2022-08-25T07:24:54;9.10;;;3.40;;
15833;SDS011;8017;50.812;4.934;2022-08-25T07:27:57;8.70;;;3.73;;
15833;SDS011;8017;50.812;4.934;2022-08-25T07:30:59;12.73;;;3.70;;
15833;SDS011;8017;50.812;4.934;2022-08-25T07:34:01;10.07;;;3.23;;
15833;SDS011;8017;50.812;4.934;2022-08-25T07:37:20;6.80;;;3.07;;
15833;SDS011;8017;50.812;4.934;2022-08-25T07:40:24;7.90;;;3.33;;
15833;SDS011;8017;50.812;4.934;2022-08-25T07:43:28;9.77;;;3.30;;
15833;SDS011;8017;50.812;4.934;2022-08-25T07:46:30;7.33;;;3.53;;
15833;SDS011;8017;50.812;4.934;2022-08-25T07:49:33;11.27;;;3.23;;
15833;SDS011;8017;50.812;4.934;2022-08-25T07:52:34;7.50;;;3.17;;
15833;SDS011;8017;50.812;4.934;2022-08-25T07:55:36;6.10;;;2.97;;
15833;SDS011;8017;50.812;4.934;2022-08-25T07:58:41;15.90;;;4.50;;
15833;SDS011;8017;50.812;4.934;2022-08-25T08:01:43;11.40;;;4.30;;
15833;SDS011;8017;50.812;4.934;2022-08-25T08:04:46;13.37;;;4.07;;
15833;SDS011;8017;50.812;4.934;2022-08-25T08:07:49;9.50;;;4.57;;
15833;SDS011;8017;50.812;4.934;2022-08-25T08:10:51;10.90;;;3.77;;
15833;SDS011;8017;50.812;4.934;2022-08-25T08:13:55;11.60;;;3.97;;
15833;SDS011;8017;50.812;4.934;2022-08-25T08:16:58;8.30;;;3.87;;
15833;SDS011;8017;50.812;4.934;2022-08-25T08:20:00;10.33;;;3.50;;
15833;SDS011;8017;50.812;4.934;2022-08-25T08:23:05;11.60;;;3.63;;
15833;SDS011;8017;50.812;4.934;2022-08-25T08:26:06;11.10;;;3.10;;
15833;SDS011;8017;50.812;4.934;2022-08-25T08:29:10;7.60;;;3.00;;
15833;SDS011;8017;50.812;4.934;2022-08-25T08:32:13;12.10;;;3.50;;
15833;SDS011;8017;50.812;4.934;2022-08-25T08:35:17;10.47;;;3.80;;
15833;SDS011;8017;50.812;4.934;2022-08-25T08:38:18;4.90;;;3.10;;
15833;SDS011;8017;50.812;4.934;2022-08-25T08:41:29;13.17;;;3.40;;
15833;SDS011;8017;50.812;4.934;2022-08-25T08:45:05;15.37;;;3.67;;
15833;SDS011;8017;50.812;4.934;2022-08-25T08:48:25;6.37;;;2.87;;
15833;SDS011;8017;50.812;4.934;2022-08-25T08:51:42;7.00;;;2.23;;
15833;SDS011;8017;50.812;4.934;2022-08-25T08:54:54;6.93;;;2.43;;
15833;SDS011;8017;50.812;4.934;2022-08-25T08:58:02;8.07;;;2.60;;
15833;SDS011;8017;50.812;4.934;2022-08-25T09:01:07;9.63;;;2.85;;
15833;SDS011;8017;50.812;4.934;2022-08-25T09:04:13;9.07;;;2.53;;
15833;SDS011;8017;50.812;4.934;2022-08-25T09:07:21;12.27;;;2.53;;
15833;SDS011;8017;50.812;4.934;2022-08-25T09:10:31;3.85;;;2.20;;
15833;SDS011;8017;50.812;4.934;2022-08-25T09:13:44;6.35;;;2.17;;
15833;SDS011;8017;50.812;4.934;2022-08-25T09:17:00;7.65;;;2.60;;
15833;SDS011;8017;50.812;4.934;2022-08-25T09:20:08;8.02;;;2.08;;
15833;SDS011;8017;50.812;4.934;2022-08-25T09:23:24;10.85;;;2.38;;
15833;SDS011;8017;50.812;4.934;2022-08-25T09:26:34;5.15;;;2.20;;
15833;SDS011;8017;50.812;4.934;2022-08-25T09:29:45;7.28;;;2.30;;
15833;SDS011;8017;50.812;4.934;2022-08-25T09:32:59;7.30;;;1.98;;
15833;SDS011;8017;50.812;4.934;2022-08-25T09:36:04;4.95;;;1.85;;
15833;SDS011;8017;50.812;4.934;2022-08-25T09:39:06;5.88;;;1.60;;
15833;SDS011;8017;50.812;4.934;2022-08-25T09:42:08;4.80;;;1.98;;
15833;SDS011;8017;50.812;4.934;2022-08-25T09:45:11;6.47;;;1.85;;
15833;SDS011;8017;50.812;4.934;2022-08-25T09:48:22;2.55;;;1.45;;
15833;SDS011;8017;50.812;4.934;2022-08-25T09:51:26;3.33;;;1.95;;
15833;SDS011;8017;50.812;4.934;2022-08-25T09:54:30;2.85;;;1.83;;
15833;SDS011;8017;50.812;4.934;2022-08-25T09:57:35;2.33;;;1.33;;
15833;SDS011;8017;50.812;4.934;2022-08-25T10:00:44;4.32;;;1.60;;
15833;SDS011;8017;50.812;4.934;2022-08-25T10:04:13;4.85;;;1.80;;
15833;SDS011;8017;50.812;4.934;2022-08-25T10:07:19;3.15;;;1.50;;
15833;SDS011;8017;50.812;4.934;2022-08-25T10:10:27;3.83;;;1.70;;
15833;SDS011;8017;50.812;4.934;2022-08-25T10:13:32;2.95;;;1.38;;
15833;SDS011;8017;50.812;4.934;2022-08-25T10:16:36;5.15;;;1.70;;
15833;SDS011;8017;50.812;4.934;2022-08-25T10:19:40;3.70;;;1.52;;
15833;SDS011;8017;50.812;4.934;2022-08-25T10:22:43;2.47;;;1.55;;
15833;SDS011;8017;50.812;4.934;2022-08-25T10:25:46;2.88;;;1.33;;
15833;SDS011;8017;50.812;4.934;2022-08-25T10:28:53;4.30;;;1.55;;
15833;SDS011;8017;50.812;4.934;2022-08-25T10:32:08;3.88;;;1.73;;
15833;SDS011;8017;50.812;4.934;2022-08-25T10:35:18;3.83;;;1.70;;
15833;SDS011;8017;50.812;4.934;2022-08-25T10:38:33;3.65;;;1.50;;
15833;SDS011;8017;50.812;4.934;2022-08-25T10:41:41;2.58;;;1.38;;
15833;SDS011;8017;50.812;4.934;2022-08-25T10:44:51;2.50;;;1.48;;
15833;SDS011;8017;50.812;4.934;2022-08-25T10:48:18;2.53;;;1.40;;
15833;SDS011;8017;50.812;4.934;2022-08-25T10:51:39;7.22;;;1.58;;
15833;SDS011;8017;50.812;4.934;2022-08-25T10:54:48;1.73;;;1.42;;
15833;SDS011;8017;50.812;4.934;2022-08-25T10:57:59;3.50;;;1.55;;
15833;SDS011;8017;50.812;4.934;2022-08-25T11:01:10;2.22;;;1.60;;
15833;SDS011;8017;50.812;4.934;2022-08-25T11:04:21;4.50;;;1.27;;
15833;SDS011;8017;50.812;4.934;2022-08-25T11:07:30;3.83;;;1.42;;
15833;SDS011;8017;50.812;4.934;2022-08-25T11:10:39;3.22;;;1.48;;
15833;SDS011;8017;50.812;4.934;2022-08-25T11:13:47;3.92;;;1.40;;
15833;SDS011;8017;50.812;4.934;2022-08-25T11:16:56;3.17;;;1.40;;
15833;SDS011;8017;50.812;4.934;2022-08-25T11:20:04;4.38;;;1.70;;
15833;SDS011;8017;50.812;4.934;2022-08-25T11:23:13;5.78;;;1.65;;
15833;SDS011;8017;50.812;4.934;2022-08-25T11:26:23;2.08;;;1.35;;
15833;SDS011;8017;50.812;4.934;2022-08-25T11:29:32;2.83;;;1.73;;
15833;SDS011;8017;50.812;4.934;2022-08-25T11:32:37;3.70;;;1.27;;
15833;SDS011;8017;50.812;4.934;2022-08-25T11:35:40;6.82;;;1.55;;
15833;SDS011;8017;50.812;4.934;2022-08-25T11:38:51;3.90;;;1.70;;
15833;SDS011;8017;50.812;4.934;2022-08-25T11:42:07;3.53;;;1.70;;
15833;SDS011;8017;50.812;4.934;2022-08-25T11:45:22;3.80;;;1.33;;
15833;SDS011;8017;50.812;4.934;2022-08-25T11:48:36;3.78;;;1.40;;
15833;SDS011;8017;50.812;4.934;2022-08-25T11:51:46;2.97;;;1.67;;
15833;SDS011;8017;50.812;4.934;2022-08-25T11:54:51;3.10;;;1.40;;
15833;SDS011;8017;50.812;4.934;2022-08-25T12:05:09;3.13;;;1.42;;
15833;SDS011;8017;50.812;4.934;2022-08-25T12:08:49;2.83;;;1.55;;
15833;SDS011;8017;50.812;4.934;2022-08-25T12:25:55;4.10;;;1.48;;
15833;SDS011;8017;50.812;4.934;2022-08-25T12:29:03;4.13;;;1.58;;
15833;SDS011;8017;50.812;4.934;2022-08-25T12:32:24;3.40;;;1.60;;
15833;SDS011;8017;50.812;4.934;2022-08-25T12:35:54;2.47;;;1.60;;
15833;SDS011;8017;50.812;4.934;2022-08-25T12:39:15;3.92;;;1.58;;
15833;SDS011;8017;50.812;4.934;2022-08-25T12:42:21;4.75;;;1.80;;
15833;SDS011;8017;50.812;4.934;2022-08-25T12:45:33;2.15;;;1.30;;
15833;SDS011;8017;50.812;4.934;2022-08-25T12:48:52;4.40;;;1.70;;
15833;SDS011;8017;50.812;4.934;2022-08-25T12:51:57;3.60;;;1.50;;
15833;SDS011;8017;50.812;4.934;2022-08-25T12:55:02;2.30;;;1.73;;
15833;SDS011;8017;50.812;4.934;2022-08-25T12:58:05;4.40;;;1.55;;
15833;SDS011;8017;50.812;4.934;2022-08-25T13:01:11;4.22;;;1.80;;
15833;SDS011;8017;50.812;4.934;2022-08-25T13:04:24;3.33;;;1.70;;
15833;SDS011;8017;50.812;4.934;2022-08-25T13:07:57;2.42;;;1.52;;
15833;SDS011;8017;50.812;4.934;2022-08-25T13:11:20;2.33;;;1.35;;
15833;SDS011;8017;50.812;4.934;2022-08-25T13:14:31;2.17;;;1.60;;
15833;SDS011;8017;50.812;4.934;2022-08-25T13:17:37;2.08;;;1.42;;
15833;SDS011;8017;50.812;4.934;2022-08-25T13:20:40;3.58;;;2.00;;
15833;SDS011;8017;50.812;4.934;2022-08-25T13:23:44;4.57;;;2.00;;
15833;SDS011;8017;50.812;4.934;2022-08-25T13:26:48;3.20;;;1.48;;
15833;SDS011;8017;50.812;4.934;2022-08-25T13:29:54;3.00;;;1.58;;
15833;SDS011;8017;50.812;4.934;2022-08-25T13:32:58;1.55;;;1.20;;
15833;SDS011;8017;50.812;4.934;2022-08-25T13:36:16;2.03;;;1.63;;
15833;SDS011;8017;50.812;4.934;2022-08-25T13:39:36;1.88;;;1.33;;
15833;SDS011;8017;50.812;4.934;2022-08-25T13:42:39;3.38;;;1.60;;
15833;SDS011;8017;50.812;4.934;2022-08-25T13:45:43;2.65;;;1.42;;
15833;SDS011;8017;50.812;4.934;2022-08-25T13:48:47;3.10;;;1.52;;
15833;SDS011;8017;50.812;4.934;2022-08-25T13:51:51;4.05;;;1.75;;
15833;SDS011;8017;50.812;4.934;2022-08-25T13:54:56;2.67;;;1.73;;
15833;SDS011;8017;50.812;4.934;2022-08-25T13:57:59;6.93;;;1.75;;
15833;SDS011;8017;50.812;4.934;2022-08-25T14:01:06;3.92;;;1.60;;
15833;SDS011;8017;50.812;4.934;2022-08-25T14:04:20;2.40;;;1.50;;
15833;SDS011;8017;50.812;4.934;2022-08-25T14:07:27;3.55;;;1.73;;
15833;SDS011;8017;50.812;4.934;2022-08-25T14:10:32;3.03;;;1.50;;
15833;SDS011;8017;50.812;4.934;2022-08-25T14:13:38;2.22;;;1.50;;
15833;SDS011;8017;50.812;4.934;2022-08-25T14:16:45;4.07;;;1.77;;
15833;SDS011;8017;50.812;4.934;2022-08-25T14:19:49;6.53;;;1.65;;
15833;SDS011;8017;50.812;4.934;2022-08-25T14:22:53;4.72;;;1.55;;
15833;SDS011;8017;50.812;4.934;2022-08-25T14:25:57;3.72;;;1.60;;
15833;SDS011;8017;50.812;4.934;2022-08-25T14:28:59;2.60;;;1.60;;
15833;SDS011;8017;50.812;4.934;2022-08-25T14:32:01;3.05;;;1.75;;
15833;SDS011;8017;50.812;4.934;2022-08-25T14:35:03;4.55;;;1.50;;
15833;SDS011;8017;50.812;4.934;2022-08-25T14:38:08;5.90;;;1.90;;
15833;SDS011;8017;50.812;4.934;2022-08-25T14:41:11;3.83;;;2.10;;
15833;SDS011;8017;50.812;4.934;2022-08-25T14:44:13;5.25;;;1.77;;
15833;SDS011;8017;50.812;4.934;2022-08-25T14:47:15;3.72;;;1.70;;
15833;SDS011;8017;50.812;4.934;2022-08-25T14:50:18;9.68;;;4.80;;
15833;SDS011;8017;50.812;4.934;2022-08-25T14:53:22;4.40;;;1.98;;
15833;SDS011;8017;50.812;4.934;2022-08-25T14:56:24;5.85;;;2.00;;
15833;SDS011;8017;50.812;4.934;2022-08-25T14:59:26;8.02;;;1.70;;
15833;SDS011;8017;50.812;4.934;2022-08-25T15:02:29;2.85;;;1.75;;
15833;SDS011;8017;50.812;4.934;2022-08-25T15:05:32;5.90;;;1.80;;
15833;SDS011;8017;50.812;4.934;2022-08-25T15:08:35;2.25;;;1.40;;
15833;SDS011;8017;50.812;4.934;2022-08-25T15:11:55;4.22;;;1.65;;
15833;SDS011;8017;50.812;4.934;2022-08-25T15:14:58;3.53;;;1.42;;
15833;SDS011;8017;50.812;4.934;2022-08-25T15:18:00;4.85;;;1.58;;
15833;SDS011;8017;50.812;4.934;2022-08-25T15:21:02;4.22;;;1.90;;
15833;SDS011;8017;50.812;4.934;2022-08-25T15:24:06;3.20;;;1.60;;
15833;SDS011;8017;50.812;4.934;2022-08-25T15:27:09;3.22;;;1.52;;
15833;SDS011;8017;50.812;4.934;2022-08-25T15:30:14;3.13;;;1.70;;
15833;SDS011;8017;50.812;4.934;2022-08-25T15:33:16;2.72;;;1.80;;
15833;SDS011;8017;50.812;4.934;2022-08-25T15:36:18;4.55;;;1.85;;
15833;SDS011;8017;50.812;4.934;2022-08-25T15:39:25;5.00;;;2.00;;
15833;SDS011;8017;50.812;4.934;2022-08-25T15:42:27;3.60;;;1.80;;
15833;SDS011;8017;50.812;4.934;2022-08-25T15:45:29;4.40;;;1.92;;
15833;SDS011;8017;50.812;4.934;2022-08-25T15:48:31;3.22;;;1.73;;
15833;SDS011;8017;50.812;4.934;2022-08-25T15:51:34;2.97;;;1.60;;
15833;SDS011;8017;50.812;4.934;2022-08-25T15:54:38;3.80;;;1.45;;
15833;SDS011;8017;50.812;4.934;2022-08-25T15:57:40;3.92;;;1.65;;
15833;SDS011;8017;50.812;4.934;2022-08-25T16:00:42;3.65;;;1.63;;
15833;SDS011;8017;50.812;4.934;2022-08-25T16:03:45;3.22;;;1.23;;
15833;SDS011;8017;50.812;4.934;2022-08-25T16:06:47;4.45;;;1.67;;
15833;SDS011;8017;50.812;4.934;2022-08-25T16:09:50;2.95;;;1.35;;
15833;SDS011;8017;50.812;4.934;2022-08-25T16:12:55;2.20;;;1.52;;
15833;SDS011;8017;50.812;4.934;2022-08-25T16:15:57;2.95;;;1.50;;
15833;SDS011;8017;50.812;4.934;2022-08-25T16:18:59;2.95;;;1.33;;
15833;SDS011;8017;50.812;4.934;2022-08-25T16:22:01;3.88;;;1.80;;
15833;SDS011;8017;50.812;4.934;2022-08-25T16:25:05;3.85;;;1.40;;
15833;SDS011;8017;50.812;4.934;2022-08-25T16:28:08;6.95;;;1.90;;
15833;SDS011;8017;50.812;4.934;2022-08-25T16:31:11;5.70;;;2.30;;
15833;SDS011;8017;50.812;4.934;2022-08-25T16:34:15;6.85;;;2.40;;
15833;SDS011;8017;50.812;4.934;2022-08-25T16:37:17;3.13;;;2.17;;
15833;SDS011;8017;50.812;4.934;2022-08-25T16:40:20;2.42;;;1.60;;
15833;SDS011;8017;50.812;4.934;2022-08-25T16:43:25;2.63;;;1.88;;
15833;SDS011;8017;50.812;4.934;2022-08-25T16:46:27;7.53;;;2.25;;
15833;SDS011;8017;50.812;4.934;2022-08-25T16:49:29;2.58;;;2.08;;
15833;SDS011;8017;50.812;4.934;2022-08-25T16:52:31;12.48;;;3.22;;
15833;SDS011;8017;50.812;4.934;2022-08-25T16:55:59;10.13;;;4.32;;
15833;SDS011;8017;50.812;4.934;2022-08-25T16:59:02;14.18;;;4.32;;
15833;SDS011;8017;50.812;4.934;2022-08-25T17:02:05;8.77;;;4.20;;
15833;SDS011;8017;50.812;4.934;2022-08-25T17:05:08;6.93;;;3.85;;
15833;SDS011;8017;50.812;4.934;2022-08-25T17:08:11;7.35;;;4.30;;
15833;SDS011;8017;50.812;4.934;2022-08-25T17:11:31;7.15;;;4.40;;
15833;SDS011;8017;50.812;4.934;2022-08-25T17:14:35;9.40;;;4.60;;
15833;SDS011;8017;50.812;4.934;2022-08-25T17:17:37;7.63;;;4.90;;
15833;SDS011;8017;50.812;4.934;2022-08-25T17:20:39;9.43;;;4.68;;
15833;SDS011;8017;50.812;4.934;2022-08-25T17:23:43;12.98;;;4.95;;
15833;SDS011;8017;50.812;4.934;2022-08-25T17:26:47;8.68;;;4.75;;
15833;SDS011;8017;50.812;4.934;2022-08-25T17:29:49;8.45;;;4.53;;
15833;SDS011;8017;50.812;4.934;2022-08-25T17:32:51;8.88;;;4.47;;
15833;SDS011;8017;50.812;4.934;2022-08-25T17:35:54;9.45;;;5.30;;
15833;SDS011;8017;50.812;4.934;2022-08-25T17:38:56;9.07;;;5.57;;
15833;SDS011;8017;50.812;4.934;2022-08-25T17:42:00;7.05;;;5.35;;
15833;SDS011;8017;50.812;4.934;2022-08-25T17:45:02;5.95;;;4.85;;
15833;SDS011;8017;50.812;4.934;2022-08-25T17:48:04;7.63;;;5.15;;
15833;SDS011;8017;50.812;4.934;2022-08-25T17:51:07;10.52;;;4.93;;
15833;SDS011;8017;50.812;4.934;2022-08-25T17:54:09;12.80;;;4.72;;
15833;SDS011;8017;50.812;4.934;2022-08-25T17:57:12;10.75;;;4.72;;
15833;SDS011;8017;50.812;4.934;2022-08-25T18:00:15;8.20;;;4.47;;
15833;SDS011;8017;50.812;4.934;2022-08-25T18:03:17;8.43;;;4.40;;
15833;SDS011;8017;50.812;4.934;2022-08-25T18:06:20;5.22;;;4.25;;
15833;SDS011;8017;50.812;4.934;2022-08-25T18:09:22;4.57;;;4.07;;
15833;SDS011;8017;50.812;4.934;2022-08-25T18:12:25;7.95;;;4.30;;
15833;SDS011;8017;50.812;4.934;2022-08-25T18:15:27;5.03;;;3.90;;
15833;SDS011;8017;50.812;4.934;2022-08-25T18:18:29;5.32;;;4.35;;
15833;SDS011;8017;50.812;4.934;2022-08-25T18:21:31;10.43;;;4.70;;
15833;SDS011;8017;50.812;4.934;2022-08-25T18:24:35;10.57;;;5.80;;
15833;SDS011;8017;50.812;4.934;2022-08-25T18:27:38;7.47;;;5.60;;
15833;SDS011;8017;50.812;4.934;2022-08-25T18:30:40;9.30;;;6.33;;
15833;SDS011;8017;50.812;4.934;2022-08-25T18:33:43;11.40;;;8.20;;
15833;SDS011;8017;50.812;4.934;2022-08-25T18:36:45;11.43;;;10.27;;
15833;SDS011;8017;50.812;4.934;2022-08-25T18:39:46;11.80;;;10.13;;
15833;SDS011;8017;50.812;4.934;2022-08-25T18:43:08;11.53;;;10.27;;
15833;SDS011;8017;50.812;4.934;2022-08-25T18:46:12;15.40;;;11.50;;
15833;SDS011;8017;50.812;4.934;2022-08-25T18:49:14;12.67;;;10.73;;
15833;SDS011;8017;50.812;4.934;2022-08-25T18:52:16;12.93;;;11.03;;
15833;SDS011;8017;50.812;4.934;2022-08-25T18:55:18;12.20;;;10.60;;
15833;SDS011;8017;50.812;4.934;2022-08-25T18:58:22;13.27;;;10.73;;
15833;SDS011;8017;50.812;4.934;2022-08-25T19:01:26;16.47;;;12.13;;
15833;SDS011;8017;50.812;4.934;2022-08-25T19:04:28;19.77;;;12.77;;
15833;SDS011;8017;50.812;4.934;2022-08-25T19:07:30;18.50;;;14.83;;
15833;SDS011;8017;50.812;4.934;2022-08-25T19:10:32;18.63;;;14.47;;